レイキャビク/ケフラヴィーク の空港の天気 - METARとTAF

ケフラヴィーク国際空港 ( BIKF / KEF ) - アイスランド ケプラヴィーク
飛行場実況気象(Metar)
観測時間01/23 05:30 GMT (01/23 05:30 UTC)
風向・風速東北東 8m/s
視程10km以上
天気現象周辺でしゅう雨
少しの雲 雲底高度 400m
全天の8割程度の雲 雲底高度 790m
気温1℃
湿度93%
気圧981hPa
METARBIKF 230530Z 07015KT 9999 VCSH FEW013CB BKN026 01/M00 Q0981
過去の天気等 Google飛行場航空写真 Wunderground天気予報

過去48時間のMETAR

飛行場予報(TAF)
発表時間: 1/23 04:24 GMT (1/23 04:24 UTC)
予報対象時間: 23日6時 GMT ~ 24日6時 GMT
風向・風速東 5m/s
視程10km以上
少しの雲 雲底高度 460m
全天の8割程度の雲 雲底高度 1,220m
23日22時 GMT ~ 23日24時 GMT に徐々に
風向・風速北東 11m/s 瞬間風速 16m/s
TAF BIKF 230424Z 2306/2406 09010KT 9999 FEW015 BKN040 TX02/2324Z TNM02/2312Z
BECMG 2322/2324 04022G32KT